Copper Creek, Canada
Current Conditions -  °F | °C
As of 10:00 PM on Thursday 30 Oct 2014 (Local Time) from CYKA Reporting Station
Broken Clouds Broken Clouds  
Wind Chill: 54°   Ceiling: 16000
Heat Index: 54°   Visibility: 40mi
Dew Point: 45°   Wind: 18mph
Humidity: 72%   Direction: 90°E
Pressure: 29.72"   Gusts: NA
Location:  50.8°N, 120.76°W
Report Text: CYKA 310500Z 09016KT 40SM FEW040 FEW080 BKN160 12/07 A2972 RMK SC1AC1AC5 SLP070 DENSITY ALT 1200FT
Loading
Personal Weather Stations






























Interactive Weather Map
Tropical Storm Tracking
New forecast layout! Learn more

10-Day Weather Forecast

Advertisements
Track Severe Weather on mobile